Flight Track Log - Related Links

Times and Time Zones

All times are in EDT time to prevent confusion due to time zone crossing. See the XOJ549 flight status page for this flight to view local times or setup timezone preferences in your user account.

Time Position Orientation Groundspeed Altitude Reporting Facility
EDT Latitude Longitude Course Direction KTS MPH feet Rate Location/Type
Fri 03:25:51 PM 42.3667 -70.9833 90° East 127 146 900  Level KA90
Fri 03:26:56 PM 42.3667 -70.9167 90° East 209 241 4,800 4,000 Climbing KA90
Fri 03:27:27 PM 42.3833 -70.8689 65° Northeast 244 281 7,300 3,956 Climbing Boston Center
Fri 03:28:27 PM 42.4156 -70.7922 60° Northeast 307 353 10,800 3,700 Climbing Boston Center
Fri 03:29:27 PM 42.5028 -70.7814 North 258 297 14,700 3,950 Climbing Boston Center
Fri 03:30:27 PM 42.5542 -70.8758 306° West 261 300 18,700 2,150 Climbing Boston Center
Fri 03:31:27 PM 42.6203 -70.9897 308° West 325 374 19,000 650 Climbing Boston Center
Fri 03:32:27 PM 42.6864 -71.1014 309° West 360 414 20,000 2,300 Climbing Boston Center
Fri 03:33:27 PM 42.7461 -71.2131 306° West 373 429 23,600 3,800 Climbing Boston Center
Fri 03:34:27 PM 42.7931 -71.3281 299° West 367 422 27,600 3,400 Climbing Boston Center
Fri 03:35:27 PM 42.8003 -71.4497 275° West 354 407 30,400 2,700 Climbing Boston Center
Fri 03:36:27 PM 42.8097 -71.5825 276° West 354 407 33,000 2,136 Climbing Boston Center
Fri 03:37:39 PM 42.8253 -71.7153 279° West 354 407 35,100 2,182 Climbing Boston Center
Fri 03:38:39 PM 42.8389 -71.8767 277° West 354 407 37,800 2,500 Climbing Boston Center
Fri 03:39:39 PM 42.8497 -72.0039 277° West 349 402 40,100 1,600 Climbing Boston Center
Fri 03:40:39 PM 42.8628 -72.1314 278° West 349 402 41,000 700 Climbing Boston Center
Fri 03:41:39 PM 42.8756 -72.2644 278° West 349 402 41,500 500 Climbing Boston Center
Fri 03:42:39 PM 42.8964 -72.4061 281° West 364 419 42,000 500 Climbing Boston Center
Fri 03:43:39 PM 42.9025 -72.5564 273° West 381 438 42,500 500 Climbing Boston Center
Fri 03:44:39 PM 42.9108 -72.6839 275° West 386 444 43,000 250 Climbing Boston Center
Fri 03:45:39 PM 42.9228 -72.8711 275° West 399 459 43,000  Level Boston Center
Fri 03:46:39 PM 42.9428 -73.0131 281° West 419 482 43,000  Level Boston Center
Fri 03:47:39 PM 42.9544 -73.1692 276° West 424 488 43,000  Level Boston Center
Fri 03:48:39 PM 42.9681 -73.3253 277° West 424 488 43,000  Level Boston Center
Fri 03:49:39 PM 42.9750 -73.4928 273° West 419 482 43,000  Level Boston Center
Fri 03:50:39 PM 42.9881 -73.6436 277° West 414 476 43,000  Level Boston Center
Fri 03:51:39 PM 43.0008 -73.7969 277° West 414 476 43,000  Level Boston Center
Fri 03:52:39 PM 43.0114 -73.9506 275° West 409 471 43,000  Level Boston Center
Fri 03:53:39 PM 43.0239 -74.1014 277° West 403 464 43,000  Level Boston Center
Fri 03:54:39 PM 43.0361 -74.2553 276° West 408 470 43,000  Level Boston Center
Fri 03:55:39 PM 43.0483 -74.4089 276° West 408 470 43,000  Level Boston Center
Fri 03:56:51 PM 43.0581 -74.5656 275° West 408 470 43,000  Level Boston Center
Fri 03:57:51 PM 43.0711 -74.7508 276° West 408 470 43,000  Level Boston Center
Fri 03:58:51 PM 43.0803 -74.9047 275° West 408 470 43,000  Level Boston Center
Fri 03:59:51 PM 43.0878 -75.0303 275° West 408 470 43,000  Level Boston Center
Fri 04:00:51 PM 43.1003 -75.2156 275° West 413 475 43,000  Level Boston Center
Fri 04:01:51 PM 43.1108 -75.3725 275° West 413 475 43,000  Level Boston Center
Fri 04:02:51 PM 43.1214 -75.5294 275° West 413 475 43,000  Level Boston Center
Fri 04:03:51 PM 43.1317 -75.6836 275° West 413 475 43,000  Level Boston Center
Fri 04:04:51 PM 43.1394 -75.8406 274° West 413 475 43,000  Level Boston Center
Fri 04:06:22 PM 43.1533 -76.0578 275° West 406 467 43,000  Level Cleveland Center
Fri 04:07:22 PM 43.1511 -76.2144 269° West 406 467 43,000  Level Cleveland Center
Fri 04:08:22 PM 43.1125 -76.3567 250° West 406 467 43,000  Level Cleveland Center
Fri 04:09:22 PM 43.0675 -76.4992 247° West 401 461 43,000  Level Cleveland Center
Fri 04:10:22 PM 43.0225 -76.6439 247° West 411 473 43,000  Level Cleveland Center
Fri 04:11:22 PM 42.9736 -76.8003 247° West 411 473 43,000  Level Cleveland Center
Fri 04:12:22 PM 42.9281 -76.9422 246° West 411 473 43,000 -200 Level Cleveland Center
Fri 04:13:22 PM 42.8847 -77.0864 248° West 411 473 42,600 -500 Descending Cleveland Center
Fri 04:14:22 PM 42.8408 -77.2278 247° West 411 473 42,000 -800 Descending Cleveland Center
Fri 04:15:22 PM 42.7986 -77.3572 246° West 396 456 41,000 -1,050 Descending Cleveland Center
Fri 04:16:22 PM 42.7667 -77.4778 250° West 371 427 39,900 -1,100 Descending Cleveland Center
Fri 04:17:22 PM 42.7406 -77.6006 254° West 353 406 38,800 -950 Descending Cleveland Center
Fri 04:18:22 PM 42.7186 -77.7175 256° West 353 406 38,000 -400 Descending Cleveland Center
Fri 04:19:22 PM 42.6906 -77.8486 254° West 353 406 38,000  Level Cleveland Center
Fri 04:20:22 PM 42.6558 -77.9744 249° West 358 412 38,000  Level Cleveland Center
Fri 04:21:22 PM 42.6147 -78.0975 246° West 358 412 38,000  Level Cleveland Center
Fri 04:22:22 PM 42.5717 -78.2233 245° Southwest 358 412 38,000 -450 Level Cleveland Center
Fri 04:23:22 PM 42.5303 -78.3461 245° Southwest 364 419 37,100 -950 Descending Cleveland Center
Fri 04:24:22 PM 42.4869 -78.4772 246° West 364 419 36,100 -1,000 Descending Cleveland Center
Fri 04:25:22 PM 42.4411 -78.6053 244° Southwest 369 425 35,100 -1,000 Descending Cleveland Center
Fri 04:26:22 PM 42.3956 -78.7389 245° Southwest 374 430 34,100 -550 Descending Cleveland Center
Fri 04:27:22 PM 42.3494 -78.8694 244° Southwest 386 444 34,000 -50 Descending Cleveland Center
Fri 04:28:22 PM 42.3036 -79.0025 245° Southwest 386 444 34,000  Level Cleveland Center
Fri 04:29:22 PM 42.2614 -79.1242 245° Southwest 380 437 34,000  Level Cleveland Center
Fri 04:30:22 PM 42.2169 -79.2458 244° Southwest 375 432 34,000  Level Cleveland Center
Fri 04:31:22 PM 42.1744 -79.3672 245° Southwest 363 418 34,000 -200 Level Cleveland Center
Fri 04:32:22 PM 42.1278 -79.4997 245° Southwest 363 418 33,600 -1,100 Descending Cleveland Center
Fri 04:33:22 PM 42.0872 -79.6264 247° West 363 418 31,800 -2,200 Descending Cleveland Center
Fri 04:34:22 PM 42.0572 -79.7639 254° West 363 418 29,200 -2,350 Descending Cleveland Center
Fri 04:35:22 PM 42.0203 -79.8564 242° Southwest 369 425 27,100 -2,750 Descending Cleveland Center
Fri 04:36:22 PM 41.9375 -79.9664 225° Southwest 347 399 23,700 -3,100 Descending Cleveland Center
Fri 04:37:22 PM 41.8586 -80.0172 206° Southwest 342 394 20,900 -3,000 Descending Cleveland Center
Fri 04:38:22 PM 41.7669 -80.0569 198° South 349 402 17,700 -2,450 Descending Cleveland Center
Fri 04:39:22 PM 41.6819 -80.1189 209° Southwest 335 386 16,000 -850 Descending Cleveland Center
Fri 04:40:22 PM 41.6531 -80.2136 248° West 282 325 16,000 -200 Level Cleveland Center
Fri 04:41:22 PM 41.6386 -80.3192 260° West 282 325 15,600 -1,450 Descending Cleveland Center
Fri 04:42:22 PM 41.6222 -80.4275 259° West 288 331 13,100 -2,650 Descending Cleveland Center
Fri 04:43:22 PM 41.6097 -80.5386 261° West 301 346 10,300 -1,550 Descending Cleveland Center
Fri 04:44:22 PM 41.5911 -80.6414 256° West 301 346 10,000 -150 Descending Cleveland Center
Fri 04:45:22 PM 41.5764 -80.7497 260° West 296 341 10,000  Level Cleveland Center
Fri 04:46:18 PM 41.5614 -80.8467 258° West 298 343 10,000  Level Cleveland Center
Fri 04:47:22 PM 41.5467 -80.9633 260° West 296 341 10,000  Level Cleveland Center
Fri 04:48:22 PM 41.5317 -81.0658 259° West 296 341 10,000 -500 Level Cleveland Center
Fri 04:49:22 PM 41.5208 -81.1544 261° West 288 331 9,000 -1,475 Descending Cleveland Center
Fri 04:50:20 PM 41.5683 -81.2353 308° West 274 315 7,100 -1,750 Descending Cleveland Center
Fri 04:51:22 PM 41.6181 -81.2969 317° Northwest 253 291 5,500 -1,770 Descending Cleveland Center
Fri 04:52:22 PM 41.6467 -81.3722 297° West 253 291 3,500 -1,250 Descending Cleveland Center
Fri 04:53:22 PM 41.6067 -81.4161 219° Southwest 189 217 3,000 -250 Descending Cleveland Center
Fri 04:54:22 PM 41.5697 -81.3408 123° Southeast 90 104 3,000  Level Cleveland Center
Fri 04:55:17 PM 41.5361 -81.3792 220° Southwest 203 234 3,000 -103 Level Cleveland Center
Fri 04:56:18 PM 41.5481 -81.4489 283° West 192 221 2,800 -134 Descending Cleveland Center
Fri 04:57:31 PM 41.5642 -81.5239 286° West 140 161 2,700 -82 Descending Cleveland Center

Login

Don't have an account? Register now (free) for customized features, flight alerts, and more!